Time;durP1;ratioP1;P1;durP2;ratioP2;P2;SDS_P1;SDS_P2;PMS_P1;PMS_P2;Temp;Humidity;BMP_temperature;BMP_pressure;BME280_temperature;BME280_humidity;BME280_pressure;Samples;Min_cycle;Max_cycle;Signal;HPM_P1;HPM_P2
2021/12/31 00:00:45;;;;;;;;;;;16.40;93.20;;;;;;4984676;28;19916;-89
2021/12/31 00:03:12;;;;;;;;;;;16.40;93.50;;;;;;4986699;28;20457;-87
2021/12/31 00:05:39;;;;;;;;;;;16.40;93.40;;;;;;4993808;28;19917;-88
2021/12/31 00:08:06;;;;;;;;;;;16.40;93.50;;;;;;4973359;28;20011;-88
2021/12/31 00:10:33;;;;;;;;;;;16.40;94.00;;;;;;4988289;28;19920;-88
2021/12/31 00:13:00;;;;;;;;;;;16.40;94.40;;;;;;4986097;28;19917;-89
2021/12/31 00:15:26;;;;;;;;;;;16.40;94.30;;;;;;4988104;28;20282;-89
2021/12/31 00:17:53;;;;;;;;;;;16.40;94.10;;;;;;4981702;28;19914;-89
2021/12/31 00:20:24;;;;;;;;;;;16.40;93.60;;;;;;4995451;28;19920;-87
2021/12/31 00:23:02;;;;;;;;;;;16.40;94.40;;;;;;4977918;28;19919;-88
2021/12/31 00:25:33;;;;;;;;;;;16.40;94.70;;;;;;4992396;28;19924;-88
2021/12/31 00:28:00;;;;;;;;;;;16.40;95.10;;;;;;4980921;28;19917;-87
2021/12/31 00:30:27;;;;;;;;;;;16.40;94.90;;;;;;4986548;28;19910;-88
2021/12/31 00:32:54;;;;;;;;;;;16.40;94.40;;;;;;4983401;28;19924;-88
2021/12/31 00:35:21;;;;;;;;;;;16.40;94.20;;;;;;4978531;28;20659;-88
2021/12/31 00:37:48;;;;;;;;;;;16.40;93.80;;;;;;4986539;28;20564;-88
2021/12/31 00:40:16;;;;;;;;;;;16.40;94.50;;;;;;4967149;28;20428;-88
2021/12/31 00:42:42;;;;;;;;;;;16.40;94.00;;;;;;4994155;28;20301;-88
2021/12/31 00:45:11;;;;;;;;;;;16.40;93.80;;;;;;4995017;28;19940;-87
2021/12/31 00:47:38;;;;;;;;;;;16.40;94.30;;;;;;4997286;28;19921;-88
2021/12/31 00:50:05;;;;;;;;;;;16.40;94.00;;;;;;4993630;28;19937;-87
2021/12/31 00:52:32;;;;;;;;;;;16.40;94.50;;;;;;4992905;28;19933;-88
2021/12/31 00:54:59;;;;;;;;;;;16.50;93.90;;;;;;4965227;28;19921;-89
2021/12/31 00:57:26;;;;;;;;;;;16.40;94.30;;;;;;4981744;28;19921;-87
2021/12/31 00:59:53;;;;;;;;;;;16.40;94.00;;;;;;4981176;28;20462;-88
2021/12/31 01:02:22;;;;;;;;;;;16.50;93.60;;;;;;4990018;28;20393;-87
2021/12/31 01:04:49;;;;;;;;;;;16.50;93.50;;;;;;4990418;28;21349;-87
2021/12/31 01:07:16;;;;;;;;;;;16.40;93.70;;;;;;4996382;28;19918;-87
2021/12/31 01:09:43;;;;;;;;;;;16.40;94.20;;;;;;4980998;28;20148;-88
2021/12/31 01:12:12;;;;;;;;;;;16.40;93.80;;;;;;4980155;28;19914;-87
2021/12/31 01:14:51;;;;;;;;;;;16.40;94.10;;;;;;4979032;28;20768;-87
2021/12/31 01:17:23;;;;;;;;;;;16.40;94.00;;;;;;4993626;28;19921;-88
2021/12/31 01:19:50;;;;;;;;;;;16.40;93.70;;;;;;4979660;28;20451;-87
2021/12/31 01:22:18;;;;;;;;;;;16.40;93.80;;;;;;4982431;28;19928;-88
2021/12/31 01:24:45;;;;;;;;;;;16.40;93.40;;;;;;4973662;28;19922;-88
2021/12/31 01:27:13;;;;;;;;;;;16.40;93.80;;;;;;4985447;28;19918;-87
2021/12/31 01:29:40;;;;;;;;;;;16.40;93.80;;;;;;4992724;28;20400;-88
2021/12/31 01:32:08;;;;;;;;;;;16.40;93.90;;;;;;4976897;28;20461;-86
2021/12/31 01:34:35;;;;;;;;;;;16.40;92.50;;;;;;4981363;28;19932;-87
2021/12/31 01:37:02;;;;;;;;;;;16.40;94.00;;;;;;4992560;28;19920;-87
2021/12/31 01:39:29;;;;;;;;;;;16.40;93.20;;;;;;4994441;28;19914;-87
2021/12/31 01:41:58;;;;;;;;;;;16.40;92.30;;;;;;4971863;28;19933;-88
2021/12/31 01:44:35;;;;;;;;;;;16.40;94.20;;;;;;4985574;28;19920;-88
2021/12/31 01:47:05;;;;;;;;;;;16.40;93.40;;;;;;4976969;28;19914;-87
2021/12/31 01:49:38;;;;;;;;;;;16.40;93.90;;;;;;4977040;28;19913;-88
2021/12/31 01:52:05;;;;;;;;;;;16.40;94.40;;;;;;4989860;28;19921;-87
2021/12/31 01:54:33;;;;;;;;;;;16.40;92.60;;;;;;4988114;28;19924;-88
2021/12/31 01:57:04;;;;;;;;;;;16.40;93.80;;;;;;4998169;28;19924;-87
2021/12/31 01:59:32;;;;;;;;;;;16.40;94.40;;;;;;4978387;28;19922;-88
2021/12/31 02:01:59;;;;;;;;;;;16.40;93.50;;;;;;4974767;28;19969;-87
2021/12/31 02:04:27;;;;;;;;;;;16.40;92.90;;;;;;4992079;28;19917;-88
2021/12/31 02:06:55;;;;;;;;;;;16.40;93.30;;;;;;4984743;28;20107;-88
2021/12/31 02:09:22;;;;;;;;;;;16.40;93.00;;;;;;4995397;28;19913;-88
2021/12/31 02:11:52;;;;;;;;;;;16.40;93.10;;;;;;4971021;28;19922;-87
2021/12/31 02:14:20;;;;;;;;;;;16.40;93.30;;;;;;4992482;28;19940;-88
2021/12/31 02:16:47;;;;;;;;;;;16.40;94.50;;;;;;4980976;28;19921;-87
2021/12/31 02:19:16;;;;;;;;;;;16.40;94.70;;;;;;4993629;28;19920;-88
2021/12/31 02:21:44;;;;;;;;;;;16.30;94.50;;;;;;4979051;28;20121;-88
2021/12/31 02:24:12;;;;;;;;;;;16.30;93.30;;;;;;4990560;28;19917;-88
2021/12/31 02:26:39;;;;;;;;;;;16.30;93.50;;;;;;4984786;28;19917;-88
2021/12/31 02:29:06;;;;;;;;;;;16.30;94.10;;;;;;5004664;28;19928;-88
2021/12/31 02:31:33;;;;;;;;;;;16.20;93.60;;;;;;4973405;28;20293;-88
2021/12/31 02:34:00;;;;;;;;;;;16.20;93.20;;;;;;4979681;28;19920;-88
2021/12/31 02:36:27;;;;;;;;;;;16.10;93.20;;;;;;4980298;28;19920;-88
2021/12/31 02:38:54;;;;;;;;;;;16.10;93.70;;;;;;4987686;28;22519;-87
2021/12/31 02:41:21;;;;;;;;;;;16.00;93.40;;;;;;4989436;28;19913;-88
2021/12/31 02:43:48;;;;;;;;;;;16.00;94.20;;;;;;4983088;28;19932;-87
2021/12/31 02:46:15;;;;;;;;;;;15.90;93.10;;;;;;4983232;28;19914;-87
2021/12/31 02:48:41;;;;;;;;;;;15.90;93.40;;;;;;4980925;28;20099;-87
2021/12/31 02:51:08;;;;;;;;;;;15.90;94.20;;;;;;4990840;28;20390;-88
2021/12/31 02:53:37;;;;;;;;;;;15.90;94.70;;;;;;4977943;28;19914;-87
2021/12/31 02:56:05;;;;;;;;;;;15.80;93.70;;;;;;4988050;28;19957;-88
2021/12/31 02:58:33;;;;;;;;;;;15.80;93.20;;;;;;4978757;28;19922;-88
2021/12/31 03:01:00;;;;;;;;;;;15.80;93.20;;;;;;4983791;28;20536;-87
2021/12/31 03:03:27;;;;;;;;;;;15.80;93.70;;;;;;4989085;28;19941;-88
2021/12/31 03:05:55;;;;;;;;;;;15.80;93.90;;;;;;4991847;28;19927;-87
2021/12/31 03:08:23;;;;;;;;;;;15.80;94.60;;;;;;4986949;28;20371;-88
2021/12/31 03:10:50;;;;;;;;;;;15.70;94.80;;;;;;4996230;28;19920;-87
2021/12/31 03:13:17;;;;;;;;;;;15.80;94.90;;;;;;4992703;28;19921;-87
2021/12/31 03:15:43;;;;;;;;;;;15.70;94.50;;;;;;4998360;28;19943;-87
2021/12/31 03:18:11;;;;;;;;;;;15.80;94.50;;;;;;4980379;28;20322;-87
2021/12/31 03:20:43;;;;;;;;;;;15.70;94.50;;;;;;4975128;28;20491;-88
2021/12/31 03:23:10;;;;;;;;;;;15.70;94.00;;;;;;4996094;28;19932;-88
2021/12/31 03:25:37;;;;;;;;;;;15.70;93.70;;;;;;4994657;28;19920;-89
2021/12/31 03:28:04;;;;;;;;;;;15.70;94.90;;;;;;4992697;28;19936;-88
2021/12/31 03:30:31;;;;;;;;;;;15.70;94.70;;;;;;4974932;28;19928;-87
2021/12/31 03:32:58;;;;;;;;;;;15.70;93.90;;;;;;4981511;28;19914;-87
2021/12/31 03:35:25;;;;;;;;;;;15.60;94.20;;;;;;4975062;28;19918;-87
2021/12/31 03:37:54;;;;;;;;;;;15.60;93.80;;;;;;4975647;28;19944;-88
2021/12/31 03:40:21;;;;;;;;;;;15.60;94.50;;;;;;4987772;28;20290;-88
2021/12/31 03:42:48;;;;;;;;;;;15.60;94.80;;;;;;4980068;28;19918;-88
2021/12/31 03:45:14;;;;;;;;;;;15.50;94.60;;;;;;4985919;28;19921;-87
2021/12/31 03:47:41;;;;;;;;;;;15.50;94.50;;;;;;4983030;28;20113;-88
2021/12/31 03:50:08;;;;;;;;;;;15.50;94.00;;;;;;4984624;28;20359;-88
2021/12/31 03:52:36;;;;;;;;;;;15.50;94.50;;;;;;4999670;28;19922;-87
2021/12/31 03:55:03;;;;;;;;;;;15.40;94.70;;;;;;5009113;28;19914;-88
2021/12/31 03:57:30;;;;;;;;;;;15.40;95.00;;;;;;4990955;28;19914;-88
2021/12/31 03:59:57;;;;;;;;;;;15.30;94.60;;;;;;4997772;28;19921;-88
2021/12/31 04:02:23;;;;;;;;;;;15.30;94.30;;;;;;4981314;28;19920;-87
2021/12/31 04:04:50;;;;;;;;;;;15.30;94.50;;;;;;4977715;28;20607;-88
2021/12/31 04:07:17;;;;;;;;;;;15.20;94.40;;;;;;4979332;28;20566;-87
2021/12/31 04:09:44;;;;;;;;;;;15.20;94.80;;;;;;4989728;28;20178;-87
2021/12/31 04:12:11;;;;;;;;;;;15.20;94.70;;;;;;4985518;28;19919;-87
2021/12/31 04:14:38;;;;;;;;;;;15.10;94.50;;;;;;4991313;28;19918;-88
2021/12/31 04:17:04;;;;;;;;;;;15.10;94.10;;;;;;4982180;28;20359;-87
2021/12/31 04:19:32;;;;;;;;;;;15.00;93.90;;;;;;4988083;28;19917;-88
2021/12/31 04:21:58;;;;;;;;;;;15.00;94.10;;;;;;4984496;28;20691;-87
2021/12/31 04:27:11;;;;;;;;;;;14.90;94.00;;;;;;4996448;28;20363;-87
2021/12/31 04:29:38;;;;;;;;;;;15.00;94.50;;;;;;4983609;28;19920;-88
2021/12/31 04:32:06;;;;;;;;;;;14.90;94.20;;;;;;5002096;28;19917;-87
2021/12/31 04:34:33;;;;;;;;;;;14.90;94.90;;;;;;4990474;28;20236;-87
2021/12/31 04:37:00;;;;;;;;;;;14.80;94.70;;;;;;4996463;28;19914;-87
2021/12/31 04:39:28;;;;;;;;;;;14.80;94.70;;;;;;4970482;28;19914;-87
2021/12/31 04:41:55;;;;;;;;;;;14.80;94.60;;;;;;4990465;28;20418;-88
2021/12/31 04:44:22;;;;;;;;;;;14.80;94.60;;;;;;4986827;28;19926;-87
2021/12/31 04:46:49;;;;;;;;;;;14.80;94.70;;;;;;4990347;28;19913;-87
2021/12/31 04:49:16;;;;;;;;;;;14.80;94.10;;;;;;4976491;28;19920;-88
2021/12/31 04:51:42;;;;;;;;;;;14.80;94.20;;;;;;4986236;28;20118;-88
2021/12/31 04:54:14;;;;;;;;;;;14.70;94.40;;;;;;4972869;28;19924;-87
2021/12/31 04:56:45;;;;;;;;;;;14.80;94.80;;;;;;4979610;28;19914;-87
2021/12/31 04:59:12;;;;;;;;;;;14.70;95.10;;;;;;4997641;28;19918;-87
2021/12/31 05:01:39;;;;;;;;;;;14.70;94.80;;;;;;4985017;28;20213;-88
2021/12/31 05:04:05;;;;;;;;;;;14.70;94.60;;;;;;4977687;28;20290;-87
2021/12/31 05:06:33;;;;;;;;;;;14.70;94.20;;;;;;4990818;28;19917;-88
2021/12/31 05:09:00;;;;;;;;;;;14.70;94.00;;;;;;4979387;28;20286;-88
2021/12/31 05:11:27;;;;;;;;;;;14.70;94.00;;;;;;4980387;28;19924;-88
2021/12/31 05:13:54;;;;;;;;;;;14.70;93.90;;;;;;4983961;28;20816;-87
2021/12/31 05:16:21;;;;;;;;;;;14.60;94.20;;;;;;4991030;28;19914;-87
2021/12/31 05:18:48;;;;;;;;;;;14.60;94.40;;;;;;4973683;28;20284;-87
2021/12/31 05:21:14;;;;;;;;;;;14.60;94.40;;;;;;4995302;28;19928;-87
2021/12/31 05:23:41;;;;;;;;;;;14.60;94.70;;;;;;4992083;28;20434;-88
2021/12/31 05:26:08;;;;;;;;;;;14.60;93.90;;;;;;4970782;28;19917;-87
2021/12/31 05:28:36;;;;;;;;;;;14.60;93.80;;;;;;4980786;28;19914;-88
2021/12/31 05:31:03;;;;;;;;;;;14.60;93.50;;;;;;4988079;28;20214;-87
2021/12/31 05:33:30;;;;;;;;;;;14.60;93.80;;;;;;4988878;28;19920;-87
2021/12/31 05:35:59;;;;;;;;;;;14.60;93.80;;;;;;4979666;28;20235;-88
2021/12/31 05:38:26;;;;;;;;;;;14.60;94.20;;;;;;4992507;28;19914;-87
2021/12/31 05:40:55;;;;;;;;;;;14.50;94.40;;;;;;4967314;28;20298;-87
2021/12/31 05:43:22;;;;;;;;;;;14.50;94.50;;;;;;4995003;28;19913;-88
2021/12/31 05:45:49;;;;;;;;;;;14.50;94.50;;;;;;4993618;28;20394;-87
2021/12/31 05:48:16;;;;;;;;;;;14.50;94.60;;;;;;4991614;28;19922;-88
2021/12/31 05:50:42;;;;;;;;;;;14.50;94.50;;;;;;4979677;28;20401;-88
2021/12/31 05:53:09;;;;;;;;;;;14.50;94.70;;;;;;5014891;28;20282;-87
2021/12/31 05:55:36;;;;;;;;;;;14.40;94.70;;;;;;4970193;28;20018;-88
2021/12/31 05:58:03;;;;;;;;;;;14.40;94.70;;;;;;4996664;28;19922;-88
2021/12/31 06:00:30;;;;;;;;;;;14.40;94.60;;;;;;4991642;28;19920;-88
2021/12/31 06:02:57;;;;;;;;;;;14.40;94.00;;;;;;4987655;28;19948;-88
2021/12/31 06:05:25;;;;;;;;;;;14.40;93.80;;;;;;4987332;28;20446;-87
2021/12/31 06:07:57;;;;;;;;;;;14.40;94.40;;;;;;4973497;28;19917;-87
2021/12/31 06:10:24;;;;;;;;;;;14.40;93.80;;;;;;4990603;28;19944;-87
2021/12/31 06:12:55;;;;;;;;;;;14.50;94.20;;;;;;4966080;28;19913;-87
2021/12/31 06:15:23;;;;;;;;;;;14.50;93.50;;;;;;4989622;28;19920;-89
2021/12/31 06:17:50;;;;;;;;;;;14.50;94.50;;;;;;4990354;28;20122;-87
2021/12/31 06:20:17;;;;;;;;;;;14.50;94.40;;;;;;4993326;28;20289;-88
2021/12/31 06:22:44;;;;;;;;;;;14.50;94.70;;;;;;4972226;28;19943;-87
2021/12/31 06:25:11;;;;;;;;;;;14.50;94.50;;;;;;4982292;28;19918;-87
2021/12/31 06:27:38;;;;;;;;;;;14.50;94.50;;;;;;4991672;28;20105;-87
2021/12/31 06:30:05;;;;;;;;;;;14.50;94.40;;;;;;4982747;28;19914;-87
2021/12/31 06:32:32;;;;;;;;;;;14.50;94.80;;;;;;4993221;28;19922;-87
2021/12/31 06:34:59;;;;;;;;;;;14.50;94.10;;;;;;4980084;28;19930;-87
2021/12/31 06:37:26;;;;;;;;;;;14.50;93.70;;;;;;4979611;28;19921;-87
2021/12/31 06:39:53;;;;;;;;;;;14.50;94.20;;;;;;4977205;28;19924;-87
2021/12/31 06:42:20;;;;;;;;;;;14.50;93.40;;;;;;4986190;28;20006;-87
2021/12/31 06:44:47;;;;;;;;;;;14.50;93.40;;;;;;4980405;28;19924;-87
2021/12/31 06:47:14;;;;;;;;;;;14.50;93.50;;;;;;5008298;28;19924;-87
2021/12/31 06:49:42;;;;;;;;;;;14.50;93.90;;;;;;4990287;28;19914;-87
2021/12/31 06:52:09;;;;;;;;;;;14.50;94.00;;;;;;4998067;28;19914;-87
2021/12/31 06:54:36;;;;;;;;;;;14.50;94.10;;;;;;4967796;28;20694;-87
2021/12/31 06:57:04;;;;;;;;;;;14.50;93.60;;;;;;4996403;28;19909;-87
2021/12/31 06:59:31;;;;;;;;;;;14.50;94.10;;;;;;4977150;28;20031;-87
2021/12/31 07:01:57;;;;;;;;;;;14.50;94.30;;;;;;4989684;28;19929;-87
2021/12/31 07:04:24;;;;;;;;;;;14.50;94.30;;;;;;4992880;28;19928;-87
2021/12/31 07:06:51;;;;;;;;;;;14.50;94.70;;;;;;4992101;28;19925;-87
2021/12/31 07:09:18;;;;;;;;;;;14.50;94.60;;;;;;4983465;28;19922;-87
2021/12/31 07:11:45;;;;;;;;;;;14.50;94.60;;;;;;4975142;28;20227;-87
2021/12/31 07:14:11;;;;;;;;;;;14.50;93.90;;;;;;4975723;28;20381;-87
2021/12/31 07:16:38;;;;;;;;;;;14.50;94.30;;;;;;4993108;28;19917;-87
2021/12/31 07:19:05;;;;;;;;;;;14.50;94.60;;;;;;4997231;28;20294;-87
2021/12/31 07:21:32;;;;;;;;;;;14.50;94.30;;;;;;4991508;28;19922;-86
2021/12/31 07:23:59;;;;;;;;;;;14.50;94.10;;;;;;4989688;28;19999;-87
2021/12/31 07:26:26;;;;;;;;;;;14.50;94.10;;;;;;4984850;28;19922;-88
2021/12/31 07:28:52;;;;;;;;;;;14.50;93.90;;;;;;4993431;28;19923;-87
2021/12/31 07:31:20;;;;;;;;;;;14.50;94.20;;;;;;4993793;28;19923;-87
2021/12/31 07:33:46;;;;;;;;;;;14.50;93.90;;;;;;4991879;28;19928;-87
2021/12/31 07:36:13;;;;;;;;;;;14.50;94.20;;;;;;5003124;28;19918;-87
2021/12/31 07:38:47;;;;;;;;;;;14.50;94.00;;;;;;4991229;28;19924;-87
2021/12/31 07:41:14;;;;;;;;;;;14.50;94.70;;;;;;4973722;28;19936;-87
2021/12/31 07:43:41;;;;;;;;;;;14.50;94.50;;;;;;4995230;28;19913;-86
2021/12/31 07:46:07;;;;;;;;;;;14.50;94.40;;;;;;4986192;28;19917;-87
2021/12/31 07:48:34;;;;;;;;;;;14.50;94.20;;;;;;4997549;28;20225;-88
2021/12/31 07:51:01;;;;;;;;;;;14.50;93.70;;;;;;4976280;28;19913;-87
2021/12/31 07:53:28;;;;;;;;;;;14.50;94.00;;;;;;4995156;28;19936;-88
2021/12/31 07:55:55;;;;;;;;;;;14.50;94.10;;;;;;4979936;28;20374;-87
2021/12/31 07:58:24;;;;;;;;;;;14.50;94.20;;;;;;4983687;28;19921;-87
2021/12/31 08:00:51;;;;;;;;;;;14.50;94.20;;;;;;4979098;28;19944;-87
2021/12/31 08:03:17;;;;;;;;;;;14.50;94.20;;;;;;4991044;28;19921;-87
2021/12/31 08:05:44;;;;;;;;;;;14.50;93.60;;;;;;4995820;28;19917;-87
2021/12/31 08:08:11;;;;;;;;;;;14.40;94.10;;;;;;4997994;28;19922;-87
2021/12/31 08:10:40;;;;;;;;;;;14.50;94.00;;;;;;4975101;28;20086;-87
2021/12/31 08:13:06;;;;;;;;;;;14.50;94.10;;;;;;4986333;28;19923;-87
2021/12/31 08:15:33;;;;;;;;;;;14.50;93.90;;;;;;4975486;28;20522;-88
2021/12/31 08:18:00;;;;;;;;;;;14.50;94.00;;;;;;5000330;28;19918;-87
2021/12/31 08:20:27;;;;;;;;;;;14.50;94.40;;;;;;4995290;28;19922;-87
2021/12/31 08:22:54;;;;;;;;;;;14.50;94.30;;;;;;4999731;28;19917;-87
2021/12/31 08:25:21;;;;;;;;;;;14.50;94.30;;;;;;4988856;28;19920;-88
2021/12/31 08:27:48;;;;;;;;;;;14.50;94.60;;;;;;4986118;28;19914;-87
2021/12/31 08:30:15;;;;;;;;;;;14.50;94.40;;;;;;4990716;28;19913;-87
2021/12/31 08:32:42;;;;;;;;;;;14.50;94.70;;;;;;4981920;28;19918;-87
2021/12/31 08:35:09;;;;;;;;;;;14.50;94.80;;;;;;4991993;28;20124;-87
2021/12/31 08:37:35;;;;;;;;;;;14.60;94.70;;;;;;4999320;28;19920;-87
2021/12/31 08:40:03;;;;;;;;;;;14.60;94.90;;;;;;4987574;28;20542;-87
2021/12/31 08:42:30;;;;;;;;;;;14.60;94.30;;;;;;4998132;28;20298;-86
2021/12/31 08:44:56;;;;;;;;;;;14.60;94.30;;;;;;4973375;28;20025;-87
2021/12/31 08:47:23;;;;;;;;;;;14.60;94.20;;;;;;4983511;28;19917;-87
2021/12/31 08:49:50;;;;;;;;;;;14.70;93.20;;;;;;4992558;28;20375;-88
2021/12/31 08:52:17;;;;;;;;;;;14.60;93.40;;;;;;4996511;28;20305;-87
2021/12/31 08:54:44;;;;;;;;;;;14.70;93.40;;;;;;4978189;28;19913;-88
2021/12/31 08:57:11;;;;;;;;;;;14.70;93.20;;;;;;4989027;28;20204;-88
2021/12/31 08:59:38;;;;;;;;;;;14.70;93.60;;;;;;4996046;28;19913;-87
2021/12/31 09:02:05;;;;;;;;;;;14.80;93.40;;;;;;4973738;28;20025;-87
2021/12/31 09:04:32;;;;;;;;;;;14.80;93.10;;;;;;4988258;28;19910;-87
2021/12/31 09:06:59;;;;;;;;;;;14.80;93.60;;;;;;4994486;28;20190;-87
2021/12/31 09:09:26;;;;;;;;;;;14.80;93.20;;;;;;4995732;28;19914;-86
2021/12/31 09:11:54;;;;;;;;;;;14.80;93.80;;;;;;4978005;28;20273;-87
2021/12/31 09:14:21;;;;;;;;;;;14.90;94.00;;;;;;4991540;28;20190;-86
2021/12/31 09:16:48;;;;;;;;;;;14.90;93.40;;;;;;4997675;28;19922;-87
2021/12/31 09:19:15;;;;;;;;;;;14.90;94.40;;;;;;4980846;28;20574;-87
2021/12/31 09:21:42;;;;;;;;;;;14.90;94.10;;;;;;4990145;28;19920;-87
2021/12/31 09:24:09;;;;;;;;;;;14.90;94.00;;;;;;4992231;28;19922;-87
2021/12/31 09:26:36;;;;;;;;;;;14.90;93.60;;;;;;4980370;28;20152;-87
2021/12/31 09:29:03;;;;;;;;;;;14.90;93.80;;;;;;4998409;28;20389;-87
2021/12/31 09:31:30;;;;;;;;;;;15.00;94.30;;;;;;4981624;28;20096;-87
2021/12/31 09:33:57;;;;;;;;;;;15.00;94.20;;;;;;4962656;28;19914;-87
2021/12/31 09:36:23;;;;;;;;;;;15.00;93.70;;;;;;4988101;28;20114;-87
2021/12/31 09:38:51;;;;;;;;;;;15.00;93.30;;;;;;4972606;28;20665;-87
2021/12/31 09:41:18;;;;;;;;;;;15.00;94.00;;;;;;4957440;28;19924;-87
2021/12/31 09:43:49;;;;;;;;;;;15.00;94.10;;;;;;4966753;28;19920;-87
2021/12/31 09:46:17;;;;;;;;;;;15.00;93.80;;;;;;4974491;28;20831;-87
2021/12/31 09:48:44;;;;;;;;;;;15.00;94.10;;;;;;4985369;28;19913;-88
2021/12/31 09:51:11;;;;;;;;;;;15.00;93.10;;;;;;4976934;28;19913;-87
2021/12/31 09:53:37;;;;;;;;;;;15.10;92.50;;;;;;4987855;28;20028;-87
2021/12/31 09:56:06;;;;;;;;;;;15.10;93.10;;;;;;4991200;28;19920;-87
2021/12/31 09:58:34;;;;;;;;;;;15.10;93.00;;;;;;4970313;28;19918;-87
2021/12/31 10:01:02;;;;;;;;;;;15.10;93.50;;;;;;4979993;28;19924;-87
2021/12/31 10:03:30;;;;;;;;;;;15.10;93.20;;;;;;4964181;28;20387;-88
2021/12/31 10:06:06;;;;;;;;;;;15.10;92.20;;;;;;4967839;28;19914;-87
2021/12/31 10:08:42;;;;;;;;;;;15.10;92.80;;;;;;4975268;28;19928;-87
2021/12/31 10:11:13;;;;;;;;;;;15.00;92.50;;;;;;4972035;28;19913;-87
2021/12/31 10:13:44;;;;;;;;;;;15.00;93.60;;;;;;4957807;28;19924;-87
2021/12/31 10:16:23;;;;;;;;;;;15.10;93.40;;;;;;4981713;28;20104;-87
2021/12/31 10:19:03;;;;;;;;;;;15.10;93.60;;;;;;4965978;28;19929;-87
2021/12/31 10:21:34;;;;;;;;;;;15.10;94.20;;;;;;5002286;28;19924;-87
2021/12/31 10:24:17;;;;;;;;;;;15.10;93.30;;;;;;4994652;28;19918;-87
2021/12/31 10:26:44;;;;;;;;;;;15.20;92.70;;;;;;4978473;28;19925;-87
2021/12/31 10:29:11;;;;;;;;;;;15.20;94.00;;;;;;4983102;28;20455;-87
2021/12/31 10:31:42;;;;;;;;;;;15.20;94.60;;;;;;4963462;28;20191;-87
2021/12/31 10:34:29;;;;;;;;;;;15.30;94.60;;;;;;4953629;28;20291;-87
2021/12/31 10:37:28;;;;;;;;;;;15.30;94.20;;;;;;4993603;28;19922;-87
2021/12/31 10:39:56;;;;;;;;;;;15.40;94.60;;;;;;4948451;28;19921;-87
2021/12/31 10:42:27;;;;;;;;;;;15.50;94.50;;;;;;4985025;28;19932;-87
2021/12/31 10:44:54;;;;;;;;;;;15.70;94.60;;;;;;4989914;28;19921;-87
2021/12/31 10:47:30;;;;;;;;;;;15.90;95.20;;;;;;4984384;28;19935;-87
2021/12/31 10:50:00;;;;;;;;;;;16.00;93.40;;;;;;4976023;28;19914;-87
2021/12/31 10:52:34;;;;;;;;;;;16.10;92.40;;;;;;4991475;28;19913;-87
2021/12/31 10:55:16;;;;;;;;;;;16.20;93.80;;;;;;4994816;28;19917;-87
2021/12/31 10:57:43;;;;;;;;;;;16.20;91.30;;;;;;5002862;28;20340;-87
2021/12/31 11:00:11;;;;;;;;;;;16.20;93.20;;;;;;4990875;28;20165;-87
2021/12/31 11:02:38;;;;;;;;;;;16.20;93.10;;;;;;4991826;28;19914;-87
2021/12/31 11:05:06;;;;;;;;;;;16.20;92.90;;;;;;4980293;28;19913;-87
2021/12/31 11:07:34;;;;;;;;;;;16.20;91.80;;;;;;4996595;28;19951;-87
2021/12/31 11:10:03;;;;;;;;;;;16.20;92.90;;;;;;4998853;28;20382;-87
2021/12/31 11:12:31;;;;;;;;;;;16.20;91.60;;;;;;4992073;28;19922;-87
2021/12/31 11:14:58;;;;;;;;;;;16.20;92.90;;;;;;4991705;28;19924;-87
2021/12/31 11:17:24;;;;;;;;;;;16.20;93.50;;;;;;4987703;28;20244;-87
2021/12/31 11:19:52;;;;;;;;;;;16.20;94.00;;;;;;5001758;28;19913;-87
2021/12/31 11:22:22;;;;;;;;;;;16.10;94.00;;;;;;4983733;28;19992;-87
2021/12/31 11:24:49;;;;;;;;;;;16.10;94.10;;;;;;4990545;28;19910;-87
2021/12/31 11:27:25;;;;;;;;;;;16.10;94.10;;;;;;4995033;28;20110;-87
2021/12/31 11:29:53;;;;;;;;;;;16.10;93.20;;;;;;4998694;28;19920;-86
2021/12/31 11:32:39;;;;;;;;;;;16.10;93.50;;;;;;4977828;28;19928;-87
2021/12/31 11:35:25;;;;;;;;;;;16.10;93.00;;;;;;5003222;28;19952;-87
2021/12/31 11:37:52;;;;;;;;;;;16.10;93.10;;;;;;4985584;28;19917;-87
2021/12/31 11:40:33;;;;;;;;;;;16.10;93.50;;;;;;4986016;28;20180;-87
2021/12/31 11:43:19;;;;;;;;;;;16.10;92.20;;;;;;4994219;28;20101;-87
2021/12/31 11:46:04;;;;;;;;;;;16.10;92.80;;;;;;4993901;28;19920;-87
2021/12/31 11:48:50;;;;;;;;;;;16.10;94.20;;;;;;4986756;28;19928;-88
2021/12/31 11:51:18;;;;;;;;;;;16.20;94.50;;;;;;4998065;28;20496;-86
2021/12/31 11:54:00;;;;;;;;;;;16.20;92.90;;;;;;4983114;28;19914;-87
2021/12/31 11:56:36;;;;;;;;;;;16.30;93.90;;;;;;5011029;28;20621;-88
2021/12/31 12:01:36;;;;;;;;;;;16.80;91.60;;;;;;4994122;28;20404;-87
2021/12/31 12:04:18;;;;;;;;;;;17.00;92.00;;;;;;4970524;28;19924;-87
2021/12/31 12:06:55;;;;;;;;;;;17.20;92.10;;;;;;4992340;28;20318;-87
2021/12/31 12:09:23;;;;;;;;;;;17.30;92.60;;;;;;4975536;28;19923;-87
2021/12/31 12:12:02;;;;;;;;;;;17.30;93.30;;;;;;4996208;28;19923;-87
2021/12/31 12:14:30;;;;;;;;;;;17.30;92.80;;;;;;4996093;28;19918;-87
2021/12/31 12:16:58;;;;;;;;;;;17.20;91.60;;;;;;4988132;28;19919;-87
2021/12/31 12:19:43;;;;;;;;;;;17.20;91.80;;;;;;4972369;28;20259;-87
2021/12/31 12:22:22;;;;;;;;;;;17.20;91.50;;;;;;5012210;28;20108;-87
2021/12/31 12:24:49;;;;;;;;;;;17.40;90.80;;;;;;4985972;28;19917;-87
2021/12/31 12:27:16;;;;;;;;;;;17.50;92.10;;;;;;4991240;28;20103;-87
2021/12/31 12:29:44;;;;;;;;;;;17.70;93.20;;;;;;4999387;28;19928;-87
2021/12/31 12:32:12;;;;;;;;;;;17.80;94.10;;;;;;4998196;28;20185;-87
2021/12/31 12:34:39;;;;;;;;;;;17.90;93.70;;;;;;4999565;28;19925;-88
2021/12/31 12:37:05;;;;;;;;;;;18.00;92.70;;;;;;4990772;28;19913;-87
2021/12/31 12:39:33;;;;;;;;;;;18.10;92.80;;;;;;4999096;28;19935;-87
2021/12/31 12:42:00;;;;;;;;;;;18.00;90.90;;;;;;4997640;28;19913;-87
2021/12/31 12:44:28;;;;;;;;;;;18.00;91.30;;;;;;5000256;28;19924;-87
2021/12/31 12:46:59;;;;;;;;;;;17.90;91.10;;;;;;4990141;28;20302;-87
2021/12/31 12:49:29;;;;;;;;;;;17.90;91.60;;;;;;4994705;28;20091;-89
2021/12/31 12:52:10;;;;;;;;;;;17.80;89.60;;;;;;4976901;28;19944;-87
2021/12/31 12:54:36;;;;;;;;;;;17.70;90.70;;;;;;4984249;28;19913;-86
2021/12/31 12:57:03;;;;;;;;;;;17.60;90.50;;;;;;4968887;28;19920;-89
2021/12/31 12:59:30;;;;;;;;;;;17.50;91.00;;;;;;4989445;28;19914;-87
2021/12/31 13:01:57;;;;;;;;;;;17.50;90.00;;;;;;4991537;28;20115;-87
2021/12/31 13:04:25;;;;;;;;;;;17.40;90.90;;;;;;4977965;28;19937;-87
2021/12/31 13:07:07;;;;;;;;;;;17.40;91.30;;;;;;4977196;28;19918;-87
2021/12/31 13:09:34;;;;;;;;;;;17.40;90.90;;;;;;4986637;28;20290;-88
2021/12/31 13:12:02;;;;;;;;;;;17.60;93.10;;;;;;4992855;28;20100;-87
2021/12/31 13:14:31;;;;;;;;;;;17.70;92.00;;;;;;4986954;28;20397;-85
2021/12/31 13:16:59;;;;;;;;;;;17.80;91.50;;;;;;4996338;28;20014;-90
2021/12/31 13:19:33;;;;;;;;;;;17.90;91.00;;;;;;4987211;28;19918;-88
2021/12/31 13:22:02;;;;;;;;;;;17.90;92.50;;;;;;4996993;28;19922;-87
2021/12/31 13:24:29;;;;;;;;;;;17.80;91.60;;;;;;4979119;28;19910;-87
2021/12/31 13:26:59;;;;;;;;;;;17.80;91.90;;;;;;4985342;28;20386;-86
2021/12/31 13:29:30;;;;;;;;;;;17.70;91.60;;;;;;4977908;28;19917;-85
2021/12/31 13:32:04;;;;;;;;;;;17.70;91.40;;;;;;4992201;28;20314;-86
2021/12/31 13:34:41;;;;;;;;;;;17.60;91.50;;;;;;4995329;28;19935;-86
2021/12/31 13:37:21;;;;;;;;;;;17.50;91.00;;;;;;4982834;28;20294;-85
2021/12/31 13:39:48;;;;;;;;;;;17.40;91.00;;;;;;4962035;28;20229;-88
2021/12/31 13:42:18;;;;;;;;;;;17.30;89.90;;;;;;5006611;28;20434;-85
2021/12/31 13:44:49;;;;;;;;;;;17.20;90.70;;;;;;4995153;28;19913;-86
2021/12/31 13:47:17;;;;;;;;;;;17.10;91.30;;;;;;4995314;28;19919;-85
2021/12/31 13:49:51;;;;;;;;;;;17.10;91.10;;;;;;4989486;28;20145;-85
2021/12/31 13:52:22;;;;;;;;;;;17.00;92.20;;;;;;4973095;28;19917;-85
2021/12/31 13:54:51;;;;;;;;;;;16.90;92.10;;;;;;4977590;28;19922;-86
2021/12/31 13:57:38;;;;;;;;;;;16.90;92.00;;;;;;4995768;28;19921;-85
2021/12/31 14:00:05;;;;;;;;;;;16.90;91.40;;;;;;5011849;28;20370;-85
2021/12/31 14:02:32;;;;;;;;;;;16.80;91.90;;;;;;4992978;28;19914;-86
2021/12/31 14:05:01;;;;;;;;;;;16.70;91.90;;;;;;4988350;28;19914;-86
2021/12/31 14:07:31;;;;;;;;;;;16.70;92.20;;;;;;4982085;28;19924;-86
2021/12/31 14:09:59;;;;;;;;;;;16.70;92.50;;;;;;5008698;28;19921;-87
2021/12/31 14:12:25;;;;;;;;;;;16.70;92.30;;;;;;4971167;28;19944;-88
2021/12/31 14:14:52;;;;;;;;;;;16.70;92.30;;;;;;4980613;28;19914;-86
2021/12/31 14:17:19;;;;;;;;;;;16.70;92.80;;;;;;4978387;28;19914;-85
2021/12/31 14:19:46;;;;;;;;;;;16.70;93.20;;;;;;4985367;28;20097;-85
2021/12/31 14:22:13;;;;;;;;;;;16.60;93.00;;;;;;4997183;28;19916;-86
2021/12/31 14:24:40;;;;;;;;;;;16.60;92.90;;;;;;4980010;28;20116;-85
2021/12/31 14:27:07;;;;;;;;;;;16.60;93.50;;;;;;4964784;28;19921;-86
2021/12/31 14:29:34;;;;;;;;;;;16.60;92.60;;;;;;4993762;28;20024;-86